TimeCST,TemperatureF,Dew PointF,Humidity,Sea Level PressureIn,VisibilityMPH,Wind Direction,Wind SpeedMPH,Gust SpeedMPH,PrecipitationIn,Events,Conditions,WindDirDegrees,DateUTC
12:58 AM,47.1,39.7,76,30.05,10.0,NW,8.1,-,N/A,,Clear,310,2013-02-16 06:58:00
1:58 AM,46.6,37.9,72,30.04,10.0,NW,5.8,-,N/A,,Clear,320,2013-02-16 07:58:00
2:58 AM,45.3,37.9,75,30.04,10.0,NW,5.8,-,N/A,,Clear,310,2013-02-16 08:58:00
3:58 AM,44.6,37.9,77,30.04,10.0,NW,4.6,-,N/A,,Mostly Cloudy,320,2013-02-16 09:58:00
4:58 AM,45.9,37.9,74,30.06,10.0,NW,10.4,-,N/A,,Overcast,320,2013-02-16 10:58:00
5:58 AM,46.6,36.9,69,30.08,10.0,NW,13.8,21.9,N/A,,Mostly Cloudy,320,2013-02-16 11:58:00
6:29 AM,46.4,32.0,57,30.11,10.0,NW,16.1,27.6,N/A,Rain,Light Rain,310,2013-02-16 12:29:00
6:47 AM,44.6,35.6,71,30.10,10.0,NNW,10.4,-,N/A,,Clear,330,2013-02-16 12:47:00
6:58 AM,45.1,35.1,68,30.11,10.0,NW,8.1,-,0.00,,Partly Cloudy,320,2013-02-16 12:58:00
7:28 AM,46.4,33.8,62,30.09,10.0,Variable,2.3,-,N/A,Rain,Light Rain,0,2013-02-16 13:28:00
7:35 AM,46.4,35.6,66,30.10,10.0,NNW,3.5,-,N/A,Rain,Light Rain,330,2013-02-16 13:35:00
7:54 AM,45.7,35.8,68,30.12,10.0,NW,5.8,-,0.00,,Overcast,310,2013-02-16 13:54:00
8:55 AM,48.9,34.0,56,30.13,10.0,NW,15.0,-,N/A,,Scattered Clouds,320,2013-02-16 14:55:00
9:55 AM,51.1,28.8,42,30.14,10.0,WNW,18.4,27.6,N/A,,Scattered Clouds,300,2013-02-16 15:55:00
10:26 AM,51.8,26.6,38,30.13,10.0,NNW,16.1,28.8,N/A,,Clear,330,2013-02-16 16:26:00
10:32 AM,51.8,26.6,38,30.14,10.0,WNW,17.3,28.8,N/A,,Clear,290,2013-02-16 16:32:00
10:58 AM,52.9,25.0,34,30.13,10.0,NW,16.1,26.5,N/A,,Clear,320,2013-02-16 16:58:00
11:24 AM,53.6,24.8,33,30.12,10.0,NNW,21.9,25.3,N/A,,Partly Cloudy,330,2013-02-16 17:24:00
11:41 AM,53.6,24.8,33,30.12,10.0,WNW,19.6,28.8,N/A,,Partly Cloudy,290,2013-02-16 17:41:00
11:58 AM,53.1,24.1,32,30.12,10.0,NW,19.6,31.1,N/A,,Partly Cloudy,320,2013-02-16 17:58:00
12:58 PM,53.8,23.2,30,30.09,10.0,NW,20.7,25.3,N/A,,Partly Cloudy,320,2013-02-16 18:58:00
1:12 PM,51.8,21.2,30,30.09,10.0,West,16.1,26.5,N/A,,Clear,280,2013-02-16 19:12:00
1:49 PM,53.6,21.2,28,30.08,10.0,NNW,18.4,27.6,N/A,,Partly Cloudy,330,2013-02-16 19:49:00
1:58 PM,52.9,20.1,28,30.09,10.0,NW,16.1,29.9,N/A,,Partly Cloudy,310,2013-02-16 19:58:00
2:58 PM,52.3,17.4,25,30.09,10.0,NW,20.7,29.9,N/A,,Partly Cloudy,310,2013-02-16 20:58:00
3:58 PM,49.5,15.3,26,30.10,10.0,NW,18.4,27.6,N/A,,Partly Cloudy,320,2013-02-16 21:58:00
4:58 PM,49.5,13.8,24,30.12,10.0,NW,12.7,20.7,N/A,,Clear,310,2013-02-16 22:58:00
5:58 PM,45.1,15.3,30,30.15,10.0,NW,9.2,-,N/A,,Clear,320,2013-02-16 23:58:00
6:58 PM,42.1,17.2,37,30.18,10.0,NW,6.9,-,N/A,,Clear,320,2013-02-17 00:58:00
7:58 PM,39.9,18.5,42,30.21,10.0,NNW,4.6,-,N/A,,Clear,330,2013-02-17 01:58:00
8:58 PM,37.0,20.5,51,30.24,10.0,NW,6.9,-,N/A,,Clear,310,2013-02-17 02:58:00
9:58 PM,34.7,19.9,55,30.26,10.0,NW,3.5,-,N/A,,Clear,310,2013-02-17 03:58:00
10:58 PM,35.6,19.2,51,30.27,10.0,NW,6.9,-,N/A,,Clear,310,2013-02-17 04:58:00
11:58 PM,32.9,19.0,57,30.27,10.0,NNW,4.6,-,N/A,,Clear,330,2013-02-17 05:58:00